Netarts Bay, Oregon
Current Conditions -  °F | °C
As of 2:35 AM on Thursday 23 Oct 2014 (Local Time) from KTMK Reporting Station
Light Rain Light Rain  
Wind Chill: 55°   Ceiling: 7000
Heat Index: 55°   Visibility: 10mi
Dew Point: 54°   Wind: 0mph
Humidity: 94%   Direction: NA
Pressure: 29.76"   Gusts: NA
Location:  45.435°N, 123.944°W
Report Text: KTMK 230935Z AUTO 00000KT 10SM -RA OVC070 13/12 A2976 RMK AO2 P0003
Loading
Personal Weather Stations






























Interactive Weather Map
Tropical Storm Tracking
New forecast layout! Learn more

10-Day Weather Forecast

Advertisements
Track Severe Weather on mobile